sensor_id;sensor_type;location;lat;lon;timestamp;temperature;humidity
38464;DHT22;24243;51.956;5.902;2023-01-16T00:01:50;19.80;54.20
38464;DHT22;24243;51.956;5.902;2023-01-16T00:04:16;19.80;54.10
38464;DHT22;24243;51.956;5.902;2023-01-16T00:06:42;19.80;54.20
38464;DHT22;24243;51.956;5.902;2023-01-16T00:09:08;19.80;54.10
38464;DHT22;24243;51.956;5.902;2023-01-16T00:11:33;19.80;54.10
38464;DHT22;24243;51.956;5.902;2023-01-16T00:13:59;19.80;54.10
38464;DHT22;24243;51.956;5.902;2023-01-16T00:16:25;19.80;54.10
38464;DHT22;24243;51.956;5.902;2023-01-16T00:18:54;19.80;54.10
38464;DHT22;24243;51.956;5.902;2023-01-16T00:21:20;19.80;54.10
38464;DHT22;24243;51.956;5.902;2023-01-16T00:23:46;19.80;54.10
38464;DHT22;24243;51.956;5.902;2023-01-16T00:26:12;19.80;54.10
38464;DHT22;24243;51.956;5.902;2023-01-16T00:28:38;19.80;54.10
38464;DHT22;24243;51.956;5.902;2023-01-16T00:31:04;19.80;54.10
38464;DHT22;24243;51.956;5.902;2023-01-16T00:33:30;19.80;54.10
38464;DHT22;24243;51.956;5.902;2023-01-16T00:35:56;19.80;54.10
38464;DHT22;24243;51.956;5.902;2023-01-16T00:38:22;19.70;54.10
38464;DHT22;24243;51.956;5.902;2023-01-16T00:40:47;19.70;54.10
38464;DHT22;24243;51.956;5.902;2023-01-16T00:43:13;19.70;54.10
38464;DHT22;24243;51.956;5.902;2023-01-16T00:45:39;19.70;54.10
38464;DHT22;24243;51.956;5.902;2023-01-16T00:48:05;19.70;54.10
38464;DHT22;24243;51.956;5.902;2023-01-16T00:50:30;19.70;54.10
38464;DHT22;24243;51.956;5.902;2023-01-16T00:52:56;19.70;54.10
38464;DHT22;24243;51.956;5.902;2023-01-16T00:55:22;19.70;54.10
38464;DHT22;24243;51.956;5.902;2023-01-16T00:57:47;19.70;54.10
38464;DHT22;24243;51.956;5.902;2023-01-16T01:00:13;19.70;54.10
38464;DHT22;24243;51.956;5.902;2023-01-16T01:02:39;19.70;54.10
38464;DHT22;24243;51.956;5.902;2023-01-16T01:05:04;19.70;54.10
38464;DHT22;24243;51.956;5.902;2023-01-16T01:07:31;19.70;54.10
38464;DHT22;24243;51.956;5.902;2023-01-16T01:09:57;19.70;54.10
38464;DHT22;24243;51.956;5.902;2023-01-16T01:12:22;19.60;54.00
38464;DHT22;24243;51.956;5.902;2023-01-16T01:14:48;19.60;54.10
38464;DHT22;24243;51.956;5.902;2023-01-16T01:17:14;19.60;54.10
38464;DHT22;24243;51.956;5.902;2023-01-16T01:19:39;19.60;54.10
38464;DHT22;24243;51.956;5.902;2023-01-16T01:22:05;19.60;54.00
38464;DHT22;24243;51.956;5.902;2023-01-16T01:24:30;19.60;54.00
38464;DHT22;24243;51.956;5.902;2023-01-16T01:26:56;19.60;54.10
38464;DHT22;24243;51.956;5.902;2023-01-16T01:29:22;19.60;54.10
38464;DHT22;24243;51.956;5.902;2023-01-16T01:31:47;19.60;54.00
38464;DHT22;24243;51.956;5.902;2023-01-16T01:34:13;19.60;54.10
38464;DHT22;24243;51.956;5.902;2023-01-16T01:36:39;19.60;54.10
38464;DHT22;24243;51.956;5.902;2023-01-16T01:39:04;19.60;54.10
38464;DHT22;24243;51.956;5.902;2023-01-16T01:41:30;19.60;54.10
38464;DHT22;24243;51.956;5.902;2023-01-16T01:43:55;19.60;54.10
38464;DHT22;24243;51.956;5.902;2023-01-16T01:46:26;19.60;54.10
38464;DHT22;24243;51.956;5.902;2023-01-16T01:48:54;19.60;54.10
38464;DHT22;24243;51.956;5.902;2023-01-16T01:51:22;19.60;54.10
38464;DHT22;24243;51.956;5.902;2023-01-16T01:53:50;19.60;54.10
38464;DHT22;24243;51.956;5.902;2023-01-16T01:56:28;19.50;54.00
38464;DHT22;24243;51.956;5.902;2023-01-16T01:58:56;19.50;54.00
38464;DHT22;24243;51.956;5.902;2023-01-16T02:01:23;19.50;54.00
38464;DHT22;24243;51.956;5.902;2023-01-16T02:04:23;19.50;54.00
38464;DHT22;24243;51.956;5.902;2023-01-16T02:06:43;19.50;54.00
38464;DHT22;24243;51.956;5.902;2023-01-16T02:09:10;19.50;54.00
38464;DHT22;24243;51.956;5.902;2023-01-16T02:14:20;19.50;54.00
38464;DHT22;24243;51.956;5.902;2023-01-16T02:16:48;19.50;54.00
38464;DHT22;24243;51.956;5.902;2023-01-16T02:30:21;19.50;54.10
38464;DHT22;24243;51.956;5.902;2023-01-16T02:32:51;19.50;54.10
38464;DHT22;24243;51.956;5.902;2023-01-16T02:35:21;19.50;54.10
38464;DHT22;24243;51.956;5.902;2023-01-16T02:37:56;19.50;54.10
38464;DHT22;24243;51.956;5.902;2023-01-16T02:40:27;19.50;54.10
38464;DHT22;24243;51.956;5.902;2023-01-16T02:43:19;19.50;54.10
38464;DHT22;24243;51.956;5.902;2023-01-16T02:45:50;19.50;54.10
38464;DHT22;24243;51.956;5.902;2023-01-16T02:48:23;19.40;54.10
38464;DHT22;24243;51.956;5.902;2023-01-16T02:51:12;19.50;54.10
38464;DHT22;24243;51.956;5.902;2023-01-16T02:56:06;19.40;54.10
38464;DHT22;24243;51.956;5.902;2023-01-16T02:58:35;19.40;54.10
38464;DHT22;24243;51.956;5.902;2023-01-16T03:01:02;19.40;54.10
38464;DHT22;24243;51.956;5.902;2023-01-16T03:05:53;19.40;54.10
38464;DHT22;24243;51.956;5.902;2023-01-16T03:08:28;19.40;54.10
38464;DHT22;24243;51.956;5.902;2023-01-16T03:16:07;19.40;54.10
38464;DHT22;24243;51.956;5.902;2023-01-16T03:18:39;19.40;54.10
38464;DHT22;24243;51.956;5.902;2023-01-16T03:23:52;19.40;54.10
38464;DHT22;24243;51.956;5.902;2023-01-16T03:26:21;19.40;54.10
38464;DHT22;24243;51.956;5.902;2023-01-16T03:28:55;19.40;54.10
38464;DHT22;24243;51.956;5.902;2023-01-16T03:31:33;19.40;54.10
38464;DHT22;24243;51.956;5.902;2023-01-16T03:39:12;19.30;54.00
38464;DHT22;24243;51.956;5.902;2023-01-16T03:41:39;19.30;54.00
38464;DHT22;24243;51.956;5.902;2023-01-16T03:44:11;19.30;54.00
38464;DHT22;24243;51.956;5.902;2023-01-16T03:46:43;19.30;54.10
38464;DHT22;24243;51.956;5.902;2023-01-16T03:49:11;19.30;54.10
38464;DHT22;24243;51.956;5.902;2023-01-16T03:51:41;19.30;54.10
38464;DHT22;24243;51.956;5.902;2023-01-16T03:56:39;19.30;54.10
38464;DHT22;24243;51.956;5.902;2023-01-16T03:59:08;19.30;54.00
38464;DHT22;24243;51.956;5.902;2023-01-16T04:01:45;19.30;54.00
38464;DHT22;24243;51.956;5.902;2023-01-16T04:04:18;19.30;54.00
38464;DHT22;24243;51.956;5.902;2023-01-16T04:09:19;19.20;54.00
38464;DHT22;24243;51.956;5.902;2023-01-16T04:11:47;19.20;54.00
38464;DHT22;24243;51.956;5.902;2023-01-16T04:14:14;19.20;54.00
38464;DHT22;24243;51.956;5.902;2023-01-16T04:16:40;19.30;54.10
38464;DHT22;24243;51.956;5.902;2023-01-16T04:19:08;19.20;54.00
38464;DHT22;24243;51.956;5.902;2023-01-16T04:21:34;19.20;54.00
38464;DHT22;24243;51.956;5.902;2023-01-16T04:24:00;19.20;54.00
38464;DHT22;24243;51.956;5.902;2023-01-16T04:26:26;19.20;54.00
38464;DHT22;24243;51.956;5.902;2023-01-16T04:28:52;19.20;54.00
38464;DHT22;24243;51.956;5.902;2023-01-16T04:31:23;19.20;54.60
38464;DHT22;24243;51.956;5.902;2023-01-16T04:33:49;19.20;54.00
38464;DHT22;24243;51.956;5.902;2023-01-16T04:36:15;19.20;54.00
38464;DHT22;24243;51.956;5.902;2023-01-16T04:38:41;19.20;54.00
38464;DHT22;24243;51.956;5.902;2023-01-16T04:41:06;19.20;54.00
38464;DHT22;24243;51.956;5.902;2023-01-16T04:43:32;19.20;54.00
38464;DHT22;24243;51.956;5.902;2023-01-16T04:45:57;19.20;54.00
38464;DHT22;24243;51.956;5.902;2023-01-16T04:48:23;19.20;54.00
38464;DHT22;24243;51.956;5.902;2023-01-16T04:50:48;19.20;54.00
38464;DHT22;24243;51.956;5.902;2023-01-16T04:53:14;19.10;54.00
38464;DHT22;24243;51.956;5.902;2023-01-16T04:55:40;19.20;54.00
38464;DHT22;24243;51.956;5.902;2023-01-16T04:58:06;19.20;54.00
38464;DHT22;24243;51.956;5.902;2023-01-16T05:00:31;19.20;54.00
38464;DHT22;24243;51.956;5.902;2023-01-16T05:02:57;19.20;54.00
38464;DHT22;24243;51.956;5.902;2023-01-16T05:05:23;19.20;54.00
38464;DHT22;24243;51.956;5.902;2023-01-16T05:07:48;19.10;54.00
38464;DHT22;24243;51.956;5.902;2023-01-16T05:10:34;19.10;54.00
38464;DHT22;24243;51.956;5.902;2023-01-16T05:12:59;19.10;53.90
38464;DHT22;24243;51.956;5.902;2023-01-16T05:15:25;19.10;54.00
38464;DHT22;24243;51.956;5.902;2023-01-16T05:17:50;19.10;53.90
38464;DHT22;24243;51.956;5.902;2023-01-16T05:20:16;19.10;54.00
38464;DHT22;24243;51.956;5.902;2023-01-16T05:22:42;19.10;53.90
38464;DHT22;24243;51.956;5.902;2023-01-16T05:25:07;19.10;53.90
38464;DHT22;24243;51.956;5.902;2023-01-16T05:27:33;19.10;54.00
38464;DHT22;24243;51.956;5.902;2023-01-16T05:29:58;19.10;54.00
38464;DHT22;24243;51.956;5.902;2023-01-16T05:32:24;19.10;54.00
38464;DHT22;24243;51.956;5.902;2023-01-16T05:34:49;19.10;53.90
38464;DHT22;24243;51.956;5.902;2023-01-16T05:37:15;19.10;53.90
38464;DHT22;24243;51.956;5.902;2023-01-16T05:39:41;19.10;53.90
38464;DHT22;24243;51.956;5.902;2023-01-16T05:42:06;19.10;54.00
38464;DHT22;24243;51.956;5.902;2023-01-16T05:44:48;19.10;54.00
38464;DHT22;24243;51.956;5.902;2023-01-16T05:47:14;19.10;54.00
38464;DHT22;24243;51.956;5.902;2023-01-16T05:49:40;19.10;54.00
38464;DHT22;24243;51.956;5.902;2023-01-16T05:52:05;19.10;54.00
38464;DHT22;24243;51.956;5.902;2023-01-16T05:54:31;19.10;54.00
38464;DHT22;24243;51.956;5.902;2023-01-16T05:56:57;19.10;54.00
38464;DHT22;24243;51.956;5.902;2023-01-16T05:59:22;19.10;54.00
38464;DHT22;24243;51.956;5.902;2023-01-16T06:01:48;19.10;54.00
38464;DHT22;24243;51.956;5.902;2023-01-16T06:04:13;19.00;54.00
38464;DHT22;24243;51.956;5.902;2023-01-16T06:06:39;19.00;54.10
38464;DHT22;24243;51.956;5.902;2023-01-16T06:09:05;19.00;54.10
38464;DHT22;24243;51.956;5.902;2023-01-16T06:11:30;19.00;54.10
38464;DHT22;24243;51.956;5.902;2023-01-16T06:13:56;19.00;54.10
38464;DHT22;24243;51.956;5.902;2023-01-16T06:16:22;19.00;54.10
38464;DHT22;24243;51.956;5.902;2023-01-16T06:18:50;19.00;54.20
38464;DHT22;24243;51.956;5.902;2023-01-16T06:21:16;18.90;54.10
38464;DHT22;24243;51.956;5.902;2023-01-16T06:23:41;19.00;54.20
38464;DHT22;24243;51.956;5.902;2023-01-16T06:26:07;18.90;54.10
38464;DHT22;24243;51.956;5.902;2023-01-16T06:28:37;18.90;54.10
38464;DHT22;24243;51.956;5.902;2023-01-16T06:31:03;19.00;54.20
38464;DHT22;24243;51.956;5.902;2023-01-16T06:33:29;18.90;54.10
38464;DHT22;24243;51.956;5.902;2023-01-16T06:35:55;18.90;54.10
38464;DHT22;24243;51.956;5.902;2023-01-16T06:38:21;18.90;54.10
38464;DHT22;24243;51.956;5.902;2023-01-16T06:40:46;18.90;54.10
38464;DHT22;24243;51.956;5.902;2023-01-16T06:43:12;18.90;54.10
38464;DHT22;24243;51.956;5.902;2023-01-16T06:45:38;18.90;54.10
38464;DHT22;24243;51.956;5.902;2023-01-16T06:48:03;18.90;54.10
38464;DHT22;24243;51.956;5.902;2023-01-16T06:50:29;18.90;54.10
38464;DHT22;24243;51.956;5.902;2023-01-16T06:52:55;18.90;54.10
38464;DHT22;24243;51.956;5.902;2023-01-16T06:55:20;18.90;54.10
38464;DHT22;24243;51.956;5.902;2023-01-16T06:57:46;18.90;54.10
38464;DHT22;24243;51.956;5.902;2023-01-16T07:00:12;18.90;54.10
38464;DHT22;24243;51.956;5.902;2023-01-16T07:02:38;18.90;54.10
38464;DHT22;24243;51.956;5.902;2023-01-16T07:05:08;18.90;54.10
38464;DHT22;24243;51.956;5.902;2023-01-16T07:07:34;18.90;54.10
38464;DHT22;24243;51.956;5.902;2023-01-16T07:10:00;18.90;54.00
38464;DHT22;24243;51.956;5.902;2023-01-16T07:12:26;18.90;54.00
38464;DHT22;24243;51.956;5.902;2023-01-16T07:14:51;18.90;54.00
38464;DHT22;24243;51.956;5.902;2023-01-16T07:17:35;18.90;54.00
38464;DHT22;24243;51.956;5.902;2023-01-16T07:20:33;18.90;53.90
38464;DHT22;24243;51.956;5.902;2023-01-16T07:23:19;18.90;54.00
38464;DHT22;24243;51.956;5.902;2023-01-16T07:25:45;18.90;53.90
38464;DHT22;24243;51.956;5.902;2023-01-16T07:28:11;18.90;54.00
38464;DHT22;24243;51.956;5.902;2023-01-16T07:30:37;18.90;54.00
38464;DHT22;24243;51.956;5.902;2023-01-16T07:33:02;18.90;53.90
38464;DHT22;24243;51.956;5.902;2023-01-16T07:35:28;18.90;54.00
38464;DHT22;24243;51.956;5.902;2023-01-16T07:37:53;18.80;53.90
38464;DHT22;24243;51.956;5.902;2023-01-16T07:40:22;18.80;53.90
38464;DHT22;24243;51.956;5.902;2023-01-16T07:42:51;18.80;53.90
38464;DHT22;24243;51.956;5.902;2023-01-16T07:45:16;18.80;53.90
38464;DHT22;24243;51.956;5.902;2023-01-16T07:47:42;18.80;53.90
38464;DHT22;24243;51.956;5.902;2023-01-16T07:50:08;18.80;53.90
38464;DHT22;24243;51.956;5.902;2023-01-16T07:52:34;18.80;53.90
38464;DHT22;24243;51.956;5.902;2023-01-16T07:54:59;18.80;53.90
38464;DHT22;24243;51.956;5.902;2023-01-16T07:57:25;18.80;53.90
38464;DHT22;24243;51.956;5.902;2023-01-16T07:59:50;18.80;53.90
38464;DHT22;24243;51.956;5.902;2023-01-16T08:02:16;18.80;53.90
38464;DHT22;24243;51.956;5.902;2023-01-16T08:04:42;18.80;53.90
38464;DHT22;24243;51.956;5.902;2023-01-16T08:07:07;18.80;53.90
38464;DHT22;24243;51.956;5.902;2023-01-16T08:09:33;18.80;53.90
38464;DHT22;24243;51.956;5.902;2023-01-16T08:11:58;18.80;53.90
38464;DHT22;24243;51.956;5.902;2023-01-16T08:14:24;18.80;53.90
38464;DHT22;24243;51.956;5.902;2023-01-16T08:16:50;18.80;53.90
38464;DHT22;24243;51.956;5.902;2023-01-16T08:19:15;18.70;53.80
38464;DHT22;24243;51.956;5.902;2023-01-16T08:21:41;18.70;53.80
38464;DHT22;24243;51.956;5.902;2023-01-16T08:24:07;18.70;53.80
38464;DHT22;24243;51.956;5.902;2023-01-16T08:26:32;18.70;53.80
38464;DHT22;24243;51.956;5.902;2023-01-16T08:28:58;18.70;53.80
38464;DHT22;24243;51.956;5.902;2023-01-16T08:31:25;18.70;53.80
38464;DHT22;24243;51.956;5.902;2023-01-16T08:33:50;18.70;53.80
38464;DHT22;24243;51.956;5.902;2023-01-16T08:36:16;18.70;53.80
38464;DHT22;24243;51.956;5.902;2023-01-16T08:38:45;18.70;53.80
38464;DHT22;24243;51.956;5.902;2023-01-16T08:41:10;18.70;53.90
38464;DHT22;24243;51.956;5.902;2023-01-16T08:43:55;18.70;53.90
38464;DHT22;24243;51.956;5.902;2023-01-16T08:46:39;18.60;53.80
38464;DHT22;24243;51.956;5.902;2023-01-16T08:49:23;18.60;53.80
38464;DHT22;24243;51.956;5.902;2023-01-16T08:52:07;18.60;53.90
38464;DHT22;24243;51.956;5.902;2023-01-16T08:54:33;18.60;53.90
38464;DHT22;24243;51.956;5.902;2023-01-16T08:56:59;18.60;53.90
38464;DHT22;24243;51.956;5.902;2023-01-16T08:59:24;18.60;53.90
38464;DHT22;24243;51.956;5.902;2023-01-16T09:01:50;18.60;53.90
38464;DHT22;24243;51.956;5.902;2023-01-16T09:04:15;18.60;53.90
38464;DHT22;24243;51.956;5.902;2023-01-16T09:06:41;18.60;54.00
38464;DHT22;24243;51.956;5.902;2023-01-16T09:09:07;18.60;53.90
38464;DHT22;24243;51.956;5.902;2023-01-16T09:11:33;18.60;53.90
38464;DHT22;24243;51.956;5.902;2023-01-16T09:14:18;18.50;53.90
38464;DHT22;24243;51.956;5.902;2023-01-16T09:16:43;18.60;54.00
38464;DHT22;24243;51.956;5.902;2023-01-16T09:19:09;18.60;54.00
38464;DHT22;24243;51.956;5.902;2023-01-16T09:21:35;18.60;54.00
38464;DHT22;24243;51.956;5.902;2023-01-16T09:24:00;18.50;53.90
38464;DHT22;24243;51.956;5.902;2023-01-16T09:26:27;18.50;53.90
38464;DHT22;24243;51.956;5.902;2023-01-16T09:28:53;18.50;54.00
38464;DHT22;24243;51.956;5.902;2023-01-16T09:31:18;18.50;53.90
38464;DHT22;24243;51.956;5.902;2023-01-16T09:33:44;18.50;54.00
38464;DHT22;24243;51.956;5.902;2023-01-16T09:36:10;18.50;54.00
38464;DHT22;24243;51.956;5.902;2023-01-16T09:38:36;18.50;54.00
38464;DHT22;24243;51.956;5.902;2023-01-16T09:41:02;18.50;54.00
38464;DHT22;24243;51.956;5.902;2023-01-16T09:43:31;18.50;54.00
38464;DHT22;24243;51.956;5.902;2023-01-16T09:48:33;18.50;54.00
38464;DHT22;24243;51.956;5.902;2023-01-16T09:51:03;18.50;54.00
38464;DHT22;24243;51.956;5.902;2023-01-16T09:53:45;18.50;54.00
38464;DHT22;24243;51.956;5.902;2023-01-16T09:56:34;18.50;54.00
38464;DHT22;24243;51.956;5.902;2023-01-16T10:01:55;18.50;54.00
38464;DHT22;24243;51.956;5.902;2023-01-16T10:04:23;18.50;54.00
38464;DHT22;24243;51.956;5.902;2023-01-16T10:09:20;18.40;53.90
38464;DHT22;24243;51.956;5.902;2023-01-16T10:11:57;18.40;54.00
38464;DHT22;24243;51.956;5.902;2023-01-16T10:17:07;18.50;54.00
38464;DHT22;24243;51.956;5.902;2023-01-16T10:22:39;18.40;54.00
38464;DHT22;24243;51.956;5.902;2023-01-16T10:29:59;18.40;54.00
38464;DHT22;24243;51.956;5.902;2023-01-16T10:32:32;18.40;54.00
38464;DHT22;24243;51.956;5.902;2023-01-16T10:35:02;18.40;54.00
38464;DHT22;24243;51.956;5.902;2023-01-16T10:37:32;18.40;54.00
38464;DHT22;24243;51.956;5.902;2023-01-16T10:40:04;18.40;54.00
38464;DHT22;24243;51.956;5.902;2023-01-16T10:42:33;18.40;54.60
38464;DHT22;24243;51.956;5.902;2023-01-16T10:45:19;18.40;54.00
38464;DHT22;24243;51.956;5.902;2023-01-16T10:48:04;18.40;54.00
38464;DHT22;24243;51.956;5.902;2023-01-16T10:50:52;18.40;54.00
38464;DHT22;24243;51.956;5.902;2023-01-16T10:53:18;18.50;54.00
38464;DHT22;24243;51.956;5.902;2023-01-16T10:55:44;18.40;54.00
38464;DHT22;24243;51.956;5.902;2023-01-16T11:00:37;18.50;54.00
38464;DHT22;24243;51.956;5.902;2023-01-16T11:03:17;18.50;54.00
38464;DHT22;24243;51.956;5.902;2023-01-16T11:05:44;18.50;54.00
38464;DHT22;24243;51.956;5.902;2023-01-16T11:08:13;18.50;53.90
38464;DHT22;24243;51.956;5.902;2023-01-16T11:10:40;18.50;54.00
38464;DHT22;24243;51.956;5.902;2023-01-16T11:13:11;18.50;54.00
38464;DHT22;24243;51.956;5.902;2023-01-16T11:16:03;18.50;53.90
38464;DHT22;24243;51.956;5.902;2023-01-16T11:18:48;18.50;53.90
38464;DHT22;24243;51.956;5.902;2023-01-16T11:21:15;18.50;53.90
38464;DHT22;24243;51.956;5.902;2023-01-16T11:23:41;18.50;53.90
38464;DHT22;24243;51.956;5.902;2023-01-16T11:26:07;18.50;53.90
38464;DHT22;24243;51.956;5.902;2023-01-16T11:28:34;18.50;53.90
38464;DHT22;24243;51.956;5.902;2023-01-16T11:31:01;18.50;53.90
38464;DHT22;24243;51.956;5.902;2023-01-16T11:33:34;18.50;53.90
38464;DHT22;24243;51.956;5.902;2023-01-16T11:36:02;18.50;53.90
38464;DHT22;24243;51.956;5.902;2023-01-16T11:38:28;18.50;53.90
38464;DHT22;24243;51.956;5.902;2023-01-16T11:40:58;18.60;53.90
38464;DHT22;24243;51.956;5.902;2023-01-16T11:43:25;18.50;53.90
38464;DHT22;24243;51.956;5.902;2023-01-16T11:48:51;18.50;53.90
38464;DHT22;24243;51.956;5.902;2023-01-16T11:51:19;18.50;53.90
38464;DHT22;24243;51.956;5.902;2023-01-16T11:53:47;18.60;54.00
38464;DHT22;24243;51.956;5.902;2023-01-16T12:04:23;18.50;53.90
38464;DHT22;24243;51.956;5.902;2023-01-16T12:06:55;18.60;54.00
38464;DHT22;24243;51.956;5.902;2023-01-16T12:14:58;18.50;53.90
38464;DHT22;24243;51.956;5.902;2023-01-16T12:20:09;18.50;54.00
38464;DHT22;24243;51.956;5.902;2023-01-16T12:22:56;18.50;54.00
38464;DHT22;24243;51.956;5.902;2023-01-16T12:28:17;18.50;54.00
38464;DHT22;24243;51.956;5.902;2023-01-16T12:36:25;18.50;54.00
38464;DHT22;24243;51.956;5.902;2023-01-16T12:44:46;18.60;54.00
38464;DHT22;24243;51.956;5.902;2023-01-16T12:57:42;18.60;54.10
38464;DHT22;24243;51.956;5.902;2023-01-16T13:00:09;18.50;54.00
38464;DHT22;24243;51.956;5.902;2023-01-16T13:05:11;18.60;54.10
38464;DHT22;24243;51.956;5.902;2023-01-16T13:07:51;18.60;54.00
38464;DHT22;24243;51.956;5.902;2023-01-16T13:10:24;18.60;54.00
38464;DHT22;24243;51.956;5.902;2023-01-16T13:13:18;18.60;54.00
38464;DHT22;24243;51.956;5.902;2023-01-16T13:18:38;18.60;54.00
38464;DHT22;24243;51.956;5.902;2023-01-16T13:21:07;18.60;54.00
38464;DHT22;24243;51.956;5.902;2023-01-16T13:23:40;18.60;54.00
38464;DHT22;24243;51.956;5.902;2023-01-16T13:26:08;18.60;54.00
38464;DHT22;24243;51.956;5.902;2023-01-16T13:31:07;18.60;54.10
38464;DHT22;24243;51.956;5.902;2023-01-16T13:33:36;18.60;54.10
38464;DHT22;24243;51.956;5.902;2023-01-16T13:41:35;18.60;54.00
38464;DHT22;24243;51.956;5.902;2023-01-16T13:46:47;18.60;54.00
38464;DHT22;24243;51.956;5.902;2023-01-16T13:49:20;18.60;54.10
38464;DHT22;24243;51.956;5.902;2023-01-16T13:51:46;18.70;54.20
38464;DHT22;24243;51.956;5.902;2023-01-16T13:54:14;18.70;54.10
38464;DHT22;24243;51.956;5.902;2023-01-16T13:56:40;18.70;54.10
38464;DHT22;24243;51.956;5.902;2023-01-16T13:59:08;18.70;54.10
38464;DHT22;24243;51.956;5.902;2023-01-16T14:14:47;18.80;54.40
38464;DHT22;24243;51.956;5.902;2023-01-16T14:20:35;18.90;54.50
38464;DHT22;24243;51.956;5.902;2023-01-16T14:23:03;18.90;54.50
38464;DHT22;24243;51.956;5.902;2023-01-16T14:25:52;19.00;54.60
38464;DHT22;24243;51.956;5.902;2023-01-16T14:28:19;19.00;54.60
38464;DHT22;24243;51.956;5.902;2023-01-16T14:30:44;19.10;54.60
38464;DHT22;24243;51.956;5.902;2023-01-16T14:33:11;19.10;54.70
38464;DHT22;24243;51.956;5.902;2023-01-16T14:35:49;19.10;54.60
38464;DHT22;24243;51.956;5.902;2023-01-16T14:38:22;19.10;54.60
38464;DHT22;24243;51.956;5.902;2023-01-16T14:40:53;19.10;54.60
38464;DHT22;24243;51.956;5.902;2023-01-16T14:43:41;19.20;54.70
38464;DHT22;24243;51.956;5.902;2023-01-16T14:46:29;19.20;54.70
38464;DHT22;24243;51.956;5.902;2023-01-16T14:52:16;19.20;54.80
38464;DHT22;24243;51.956;5.902;2023-01-16T14:55:00;19.20;54.70
38464;DHT22;24243;51.956;5.902;2023-01-16T14:57:38;19.20;54.70
38464;DHT22;24243;51.956;5.902;2023-01-16T15:00:07;19.20;54.80
38464;DHT22;24243;51.956;5.902;2023-01-16T15:03:00;19.30;54.80
38464;DHT22;24243;51.956;5.902;2023-01-16T15:05:32;19.30;54.80
38464;DHT22;24243;51.956;5.902;2023-01-16T15:10:55;19.30;54.80
38464;DHT22;24243;51.956;5.902;2023-01-16T15:13:23;19.30;54.80
38464;DHT22;24243;51.956;5.902;2023-01-16T15:15:51;19.40;54.90
38464;DHT22;24243;51.956;5.902;2023-01-16T15:18:17;19.40;54.90
38464;DHT22;24243;51.956;5.902;2023-01-16T15:21:02;19.40;54.90
38464;DHT22;24243;51.956;5.902;2023-01-16T15:23:47;19.40;54.90
38464;DHT22;24243;51.956;5.902;2023-01-16T15:28:54;19.40;54.80
38464;DHT22;24243;51.956;5.902;2023-01-16T15:31:35;19.50;54.90
38464;DHT22;24243;51.956;5.902;2023-01-16T15:39:12;19.50;54.90
38464;DHT22;24243;51.956;5.902;2023-01-16T15:41:44;19.50;54.90
38464;DHT22;24243;51.956;5.902;2023-01-16T15:44:29;19.50;54.90
38464;DHT22;24243;51.956;5.902;2023-01-16T15:47:21;19.50;54.90
38464;DHT22;24243;51.956;5.902;2023-01-16T15:52:30;19.50;54.90
38464;DHT22;24243;51.956;5.902;2023-01-16T15:54:57;19.50;54.80
38464;DHT22;24243;51.956;5.902;2023-01-16T15:57:23;19.60;54.90
38464;DHT22;24243;51.956;5.902;2023-01-16T15:59:53;19.60;54.90
38464;DHT22;24243;51.956;5.902;2023-01-16T16:02:23;19.60;54.90
38464;DHT22;24243;51.956;5.902;2023-01-16T16:04:51;19.60;54.90
38464;DHT22;24243;51.956;5.902;2023-01-16T16:07:18;19.60;54.90
38464;DHT22;24243;51.956;5.902;2023-01-16T16:09:45;19.60;54.90
38464;DHT22;24243;51.956;5.902;2023-01-16T16:12:12;19.60;54.90
38464;DHT22;24243;51.956;5.902;2023-01-16T16:14:37;19.70;55.00
38464;DHT22;24243;51.956;5.902;2023-01-16T16:22:51;19.70;55.00
38464;DHT22;24243;51.956;5.902;2023-01-16T16:25:26;19.70;54.90
38464;DHT22;24243;51.956;5.902;2023-01-16T16:27:53;19.80;55.00
38464;DHT22;24243;51.956;5.902;2023-01-16T16:30:22;19.80;55.00
38464;DHT22;24243;51.956;5.902;2023-01-16T16:32:49;19.80;55.00
38464;DHT22;24243;51.956;5.902;2023-01-16T16:35:26;19.80;55.00
38464;DHT22;24243;51.956;5.902;2023-01-16T16:37:53;19.80;55.00
38464;DHT22;24243;51.956;5.902;2023-01-16T16:40:19;19.80;55.00
38464;DHT22;24243;51.956;5.902;2023-01-16T16:47:45;19.80;55.10
38464;DHT22;24243;51.956;5.902;2023-01-16T16:50:30;19.80;55.10
38464;DHT22;24243;51.956;5.902;2023-01-16T16:53:03;19.80;55.20
38464;DHT22;24243;51.956;5.902;2023-01-16T16:58:00;19.80;55.20
38464;DHT22;24243;51.956;5.902;2023-01-16T17:00:26;19.80;55.30
38464;DHT22;24243;51.956;5.902;2023-01-16T17:03:00;19.80;55.30
38464;DHT22;24243;51.956;5.902;2023-01-16T17:05:27;19.80;55.40
38464;DHT22;24243;51.956;5.902;2023-01-16T17:07:53;19.80;55.40
38464;DHT22;24243;51.956;5.902;2023-01-16T17:10:19;19.80;55.50
38464;DHT22;24243;51.956;5.902;2023-01-16T17:12:46;19.80;55.50
38464;DHT22;24243;51.956;5.902;2023-01-16T17:15:12;19.80;55.60
38464;DHT22;24243;51.956;5.902;2023-01-16T17:17:39;19.80;55.70
38464;DHT22;24243;51.956;5.902;2023-01-16T17:20:14;19.80;56.00
38464;DHT22;24243;51.956;5.902;2023-01-16T17:22:40;19.90;56.20
38464;DHT22;24243;51.956;5.902;2023-01-16T17:25:08;19.90;56.40
38464;DHT22;24243;51.956;5.902;2023-01-16T17:27:37;19.90;56.50
38464;DHT22;24243;51.956;5.902;2023-01-16T17:30:04;19.90;56.60
38464;DHT22;24243;51.956;5.902;2023-01-16T17:32:29;20.00;56.70
38464;DHT22;24243;51.956;5.902;2023-01-16T17:34:56;20.00;56.80
38464;DHT22;24243;51.956;5.902;2023-01-16T17:37:22;20.00;56.90
38464;DHT22;24243;51.956;5.902;2023-01-16T17:39:47;20.00;57.00
38464;DHT22;24243;51.956;5.902;2023-01-16T17:42:13;20.00;57.00
38464;DHT22;24243;51.956;5.902;2023-01-16T17:44:39;20.00;57.00
38464;DHT22;24243;51.956;5.902;2023-01-16T17:47:23;20.00;57.00
38464;DHT22;24243;51.956;5.902;2023-01-16T17:49:48;20.10;56.90
38464;DHT22;24243;51.956;5.902;2023-01-16T17:52:32;20.00;56.80
38464;DHT22;24243;51.956;5.902;2023-01-16T17:54:58;20.00;56.70
38464;DHT22;24243;51.956;5.902;2023-01-16T17:57:42;20.00;56.70
38464;DHT22;24243;51.956;5.902;2023-01-16T18:00:08;20.00;56.70
38464;DHT22;24243;51.956;5.902;2023-01-16T18:02:35;20.00;56.70
38464;DHT22;24243;51.956;5.902;2023-01-16T18:05:01;20.00;56.60
38464;DHT22;24243;51.956;5.902;2023-01-16T18:07:27;20.00;56.60
38464;DHT22;24243;51.956;5.902;2023-01-16T18:09:52;20.00;56.60
38464;DHT22;24243;51.956;5.902;2023-01-16T18:12:18;20.00;56.50
38464;DHT22;24243;51.956;5.902;2023-01-16T18:15:02;19.90;56.50
38464;DHT22;24243;51.956;5.902;2023-01-16T18:17:46;19.90;56.50
38464;DHT22;24243;51.956;5.902;2023-01-16T18:20:12;20.00;56.50
38464;DHT22;24243;51.956;5.902;2023-01-16T18:22:38;19.90;56.40
38464;DHT22;24243;51.956;5.902;2023-01-16T18:25:04;20.00;56.50
38464;DHT22;24243;51.956;5.902;2023-01-16T18:27:30;19.90;56.40